No1 Toa Maru — JG5370 — position and weather

sailwx.info

Track history (hours):
 
Tides and Currents Weather Stations Pressure Air Temp Water Temp Dewpoint Dewpoint Depression Visibility Wind Speed Wind Dir Waves Ship Positions

No1 Toa Maru

Last reported at 2018-Feb-20 08:36 UTC. Time now 2018-Feb-20 23:26 UTC.
Position N 35°08' E 139°37'.

Length 38 m; draft 3.2 m.

Type: Tug. MMSI: 431100338.

Date/timePositionNaut miles runAvg speedWind from/ knotsBaromVisibWave heightAir tempDewpointWater temp
2018-Feb-20 08:36N 35°08' E 139°37'0 0.0
2018-Feb-20 08:26N 35°08' E 139°37'0 0.0
2018-Feb-20 07:57N 35°08' E 139°37'0 0.0
2018-Feb-20 07:29N 35°08' E 139°37'0 0.0
2018-Feb-20 06:59N 35°08' E 139°37'0 0.0
2018-Feb-20 06:27N 35°08' E 139°37'4 9.7
2018-Feb-20 06:00N 35°06' E 139°41'2 3.4
2018-Feb-20 05:30N 35°06' E 139°40'2 3.8
2018-Feb-20 05:00N 35°06' E 139°37'1 2.3
2018-Feb-20 04:30N 35°06' E 139°36'3 5.8
2018-Feb-20 04:00N 35°08' E 139°37'0 0.0
2018-Feb-20 03:22N 35°08' E 139°37'0 0.0
2018-Feb-20 02:49N 35°08' E 139°37'0 0.0
2018-Feb-20 02:30N 35°08' E 139°37'0 0.0
2018-Feb-20 01:56N 35°08' E 139°37'0 0.0
2018-Feb-20 01:25N 35°08' E 139°37'0 0.0
2018-Feb-19 01:42N 35°08' E 139°37'0 0.0
2018-Feb-19 01:21N 35°08' E 139°37'  
Track history (hours):
 
Tides and Currents Weather Stations Pressure Air Temp Water Temp Dewpoint Dewpoint Depression Visibility Wind Speed Wind Dir Waves Ship Positions

No1 Toa Maru

Last reported at 2018-Feb-20 08:36 UTC. Time now 2018-Feb-20 23:26 UTC.
Position N 35°08' E 139°37'.

Length 38 m; draft 3.2 m.

Type: Tug. MMSI: 431100338.

Date/timePositionNaut miles runAvg speedWind from/ knotsBaromVisibWave heightAir tempDewpointWater temp
2018-Feb-20 08:36N 35°08' E 139°37'0 0.0
2018-Feb-20 08:26N 35°08' E 139°37'0 0.0
2018-Feb-20 07:57N 35°08' E 139°37'0 0.0
2018-Feb-20 07:29N 35°08' E 139°37'0 0.0
2018-Feb-20 06:59N 35°08' E 139°37'0 0.0
2018-Feb-20 06:27N 35°08' E 139°37'4 9.7
2018-Feb-20 06:00N 35°06' E 139°41'2 3.4
2018-Feb-20 05:30N 35°06' E 139°40'2 3.8
2018-Feb-20 05:00N 35°06' E 139°37'1 2.3
2018-Feb-20 04:30N 35°06' E 139°36'3 5.8
2018-Feb-20 04:00N 35°08' E 139°37'0 0.0
2018-Feb-20 03:22N 35°08' E 139°37'0 0.0
2018-Feb-20 02:49N 35°08' E 139°37'0 0.0
2018-Feb-20 02:30N 35°08' E 139°37'0 0.0
2018-Feb-20 01:56N 35°08' E 139°37'0 0.0
2018-Feb-20 01:25N 35°08' E 139°37'0 0.0
2018-Feb-19 01:42N 35°08' E 139°37'0 0.0
2018-Feb-19 01:21N 35°08' E 139°37'  

Dump ship's entire track history